Time;durP1;ratioP1;P1;durP2;ratioP2;P2;SDS_P1;SDS_P2;PMS_P1;PMS_P2;Temp;Humidity;BMP_temperature;BMP_pressure;BME280_temperature;BME280_humidity;BME280_pressure;Samples;Min_cycle;Max_cycle;Signal;HPM_P1;HPM_P2
2022/07/21 00:01:55;;;;;;;0.70;0.20;;;23.70;99.90;;;;;;4916569;29;20457;-75
2022/07/21 00:04:24;;;;;;;0.70;0.20;;;23.60;99.90;;;;;;4917137;29;20503;-73
2022/07/21 00:06:53;;;;;;;0.70;0.20;;;23.60;99.90;;;;;;4930453;29;20484;-72
2022/07/21 00:09:21;;;;;;;0.70;0.20;;;23.60;99.90;;;;;;4936670;29;20823;-72
2022/07/21 00:11:49;;;;;;;0.80;0.47;;;23.70;99.90;;;;;;4936711;29;20452;-72
2022/07/21 00:14:17;;;;;;;0.70;0.10;;;23.70;99.90;;;;;;4935129;29;20443;-72
2022/07/21 00:16:46;;;;;;;0.70;0.20;;;23.70;99.90;;;;;;4934519;29;20484;-72
2022/07/21 00:19:14;;;;;;;0.70;0.10;;;23.80;99.90;;;;;;4935090;29;20546;-74
2022/07/21 00:21:43;;;;;;;0.70;0.10;;;23.90;99.90;;;;;;4935627;29;20464;-74
2022/07/21 00:24:11;;;;;;;0.73;0.27;;;24.00;99.90;;;;;;4934625;29;20448;-74
2022/07/21 00:26:39;;;;;;;1.13;0.70;;;;;;;;;;4934796;29;20471;-74
2022/07/21 00:29:07;;;;;;;0.90;0.57;;;24.10;99.90;;;;;;4936802;29;20452;-74
2022/07/21 00:31:35;;;;;;;0.70;0.30;;;24.10;99.90;;;;;;4935490;29;20451;-73
2022/07/21 00:34:03;;;;;;;2.40;2.20;;;24.00;99.90;;;;;;4935439;29;20848;-74
2022/07/21 00:36:31;;;;;;;0.70;0.20;;;23.90;99.90;;;;;;4935462;29;20539;-73
2022/07/21 00:39:00;;;;;;;0.70;0.33;;;23.80;99.90;;;;;;4934891;29;20448;-73
2022/07/21 00:41:28;;;;;;;1.73;1.37;;;23.80;99.90;;;;;;4935007;29;20456;-72
2022/07/21 00:43:56;;;;;;;1.23;1.13;;;23.80;99.90;;;;;;4931765;29;20474;-72
2022/07/21 00:46:24;;;;;;;0.73;0.40;;;;;;;;;;4935312;29;20827;-72
2022/07/21 00:48:52;;;;;;;0.70;0.20;;;23.60;99.90;;;;;;4941175;29;20459;-73
2022/07/21 00:51:21;;;;;;;1.07;0.70;;;23.60;99.90;;;;;;4936565;29;20485;-72
2022/07/21 00:53:49;;;;;;;2.00;1.23;;;23.60;99.90;;;;;;4933993;29;20526;-74
2022/07/21 00:56:21;;;;;;;1.33;1.23;;;23.40;99.90;;;;;;4929066;29;20488;-74
2022/07/21 00:58:49;;;;;;;0.80;0.40;;;23.40;99.90;;;;;;4915235;29;20453;-71
2022/07/21 01:01:17;;;;;;;1.70;0.70;;;23.40;99.90;;;;;;4915108;29;20468;-72
2022/07/21 01:03:45;;;;;;;1.03;0.93;;;23.30;99.90;;;;;;4915357;29;20448;-75
2022/07/21 01:06:13;;;;;;;0.70;0.20;;;23.20;99.90;;;;;;4914797;29;20993;-74
2022/07/21 01:08:41;;;;;;;0.70;0.30;;;23.20;99.90;;;;;;4915005;29;20452;-74
2022/07/21 01:11:09;;;;;;;0.70;0.13;;;23.20;99.90;;;;;;4926388;29;20563;-74
2022/07/21 01:13:41;;;;;;;0.70;0.20;;;23.20;99.90;;;;;;4915007;29;20453;-71
2022/07/21 01:16:09;;;;;;;3.77;2.60;;;23.10;99.90;;;;;;4914932;29;20481;-72
2022/07/21 01:18:38;;;;;;;2.20;1.80;;;23.10;99.90;;;;;;4915183;29;20460;-72
2022/07/21 01:21:18;;;;;;;0.70;0.20;;;23.00;99.90;;;;;;4916734;29;20453;-72
2022/07/21 01:23:47;;;;;;;1.00;0.90;;;23.00;99.90;;;;;;4916582;29;20455;-74
2022/07/21 01:26:15;;;;;;;0.70;0.20;;;23.10;99.90;;;;;;4916311;29;20472;-73
2022/07/21 01:28:42;;;;;;;0.80;0.50;;;23.10;99.90;;;;;;4938004;29;20447;-73
2022/07/21 01:31:10;;;;;;;1.00;0.77;;;23.30;99.90;;;;;;4940181;29;20461;-73
2022/07/21 01:33:39;;;;;;;3.13;1.70;;;23.40;99.90;;;;;;4914701;29;20539;-74
2022/07/21 01:36:07;;;;;;;3.90;3.70;;;23.50;99.90;;;;;;4918293;29;20832;-73
2022/07/21 01:41:33;;;;;;;0.70;0.20;;;23.60;99.90;;;;;;4951172;29;20469;-74
2022/07/21 01:44:03;;;;;;;1.57;1.33;;;23.60;99.90;;;;;;4951000;29;20949;-73
2022/07/21 01:46:33;;;;;;;0.70;0.20;;;23.70;99.90;;;;;;4952443;29;20831;-72
2022/07/21 01:49:01;;;;;;;0.70;0.20;;;23.70;99.90;;;;;;4952776;29;20815;-72
2022/07/21 01:51:29;;;;;;;0.70;0.10;;;23.70;99.90;;;;;;4952849;29;20451;-72
2022/07/21 01:53:58;;;;;;;0.70;0.10;;;23.80;99.90;;;;;;4933713;29;20459;-72
2022/07/21 01:56:27;;;;;;;0.80;0.30;;;23.90;99.90;;;;;;4933075;29;20468;-72
2022/07/21 01:58:57;;;;;;;0.70;0.20;;;24.00;99.90;;;;;;4933438;29;20467;-73
2022/07/21 02:01:28;;;;;;;0.80;0.50;;;24.00;99.90;;;;;;4933384;29;20976;-73
2022/07/21 02:03:58;;;;;;;0.70;0.10;;;24.00;99.90;;;;;;4933428;29;20443;-73
2022/07/21 02:06:27;;;;;;;0.70;0.30;;;23.90;99.90;;;;;;4930120;29;20487;-73
2022/07/21 02:08:55;;;;;;;1.40;1.30;;;23.70;99.90;;;;;;4918450;29;20450;-72
2022/07/21 02:11:24;;;;;;;0.70;0.20;;;23.60;99.90;;;;;;4917988;29;21178;-72
2022/07/21 02:13:52;;;;;;;3.13;2.40;;;23.20;99.90;;;;;;4918097;29;20460;-73
2022/07/21 02:16:20;;;;;;;5.40;3.30;;;22.90;99.90;;;;;;4917523;29;20835;-73
2022/07/21 02:18:48;;;;;;;1.77;1.50;;;22.90;99.90;;;;;;4918019;29;20488;-73
2022/07/21 02:21:17;;;;;;;0.80;0.40;;;22.70;99.90;;;;;;4930155;29;20448;-73
2022/07/21 02:23:44;;;;;;;1.13;1.03;;;22.70;99.90;;;;;;4937354;29;20539;-73
2022/07/21 02:26:12;;;;;;;0.80;0.43;;;22.70;99.90;;;;;;4936799;29;20468;-73
2022/07/21 02:28:42;;;;;;;2.10;1.23;;;22.60;99.90;;;;;;4947762;29;20443;-74
2022/07/21 02:31:09;;;;;;;4.23;3.93;;;22.50;99.90;;;;;;4956030;29;20457;-73
2022/07/21 02:33:37;;;;;;;3.13;2.83;;;22.40;99.90;;;;;;4955765;29;20772;-73
2022/07/21 02:36:06;;;;;;;0.70;0.20;;;22.10;99.90;;;;;;4936194;29;20475;-73
2022/07/21 02:38:34;;;;;;;3.60;2.47;;;22.10;99.90;;;;;;4936802;29;20479;-73
2022/07/21 02:41:02;;;;;;;1.43;1.33;;;22.20;99.90;;;;;;4936704;29;20493;-73
2022/07/21 02:43:29;;;;;;;0.80;0.40;;;22.20;99.90;;;;;;4936687;29;20458;-73
2022/07/21 02:45:59;;;;;;;0.80;0.43;;;22.40;99.90;;;;;;4951133;23;20502;-72
2022/07/21 02:48:27;;;;;;;0.70;0.20;;;22.30;99.90;;;;;;4954782;29;20469;-72
2022/07/21 02:50:55;;;;;;;1.10;0.60;;;22.30;99.90;;;;;;4955793;29;20792;-73
2022/07/21 02:53:24;;;;;;;0.70;0.10;;;22.30;99.90;;;;;;4955740;29;20530;-72
2022/07/21 02:55:53;;;;;;;0.70;0.20;;;22.40;99.90;;;;;;4956558;28;20454;-74
2022/07/21 02:58:23;;;;;;;0.70;0.20;;;22.40;99.90;;;;;;4974967;28;20958;-73
2022/07/21 03:00:54;;;;;;;0.70;0.10;;;22.40;99.90;;;;;;4975060;28;20453;-73
2022/07/21 03:03:25;;;;;;;0.70;0.20;;;22.50;99.90;;;;;;4963074;28;20821;-72
2022/07/21 03:05:53;;;;;;;0.70;0.20;;;22.60;99.90;;;;;;4955309;29;20459;-73
2022/07/21 03:08:22;;;;;;;0.70;0.10;;;22.60;99.90;;;;;;4955598;29;20458;-73
2022/07/21 03:10:50;;;;;;;0.70;0.10;;;22.60;99.90;;;;;;4955369;29;20446;-72
2022/07/21 03:13:18;;;;;;;1.00;0.60;;;22.60;99.90;;;;;;4955484;29;20440;-73
2022/07/21 03:15:46;;;;;;;2.80;1.50;;;22.50;99.90;;;;;;4956366;29;20486;-72
2022/07/21 03:18:14;;;;;;;1.50;1.13;;;22.50;99.90;;;;;;4974312;28;20489;-73
2022/07/21 03:20:44;;;;;;;0.87;0.50;;;22.30;99.90;;;;;;4975584;28;20450;-73
2022/07/21 03:23:12;;;;;;;0.80;0.37;;;22.40;99.90;;;;;;4975729;28;20464;-71
2022/07/21 03:25:40;;;;;;;2.03;1.93;;;22.30;99.90;;;;;;4982564;28;20533;-72
2022/07/21 03:28:08;;;;;;;0.87;0.43;;;22.20;99.90;;;;;;4983289;28;20474;-72
2022/07/21 03:30:37;;;;;;;0.70;0.20;;;22.00;99.90;;;;;;4971005;28;20762;-73
2022/07/21 03:33:05;;;;;;;0.70;0.30;;;21.90;99.90;;;;;;4956051;29;20459;-73
2022/07/21 03:35:35;;;;;;;0.80;0.40;;;21.70;99.90;;;;;;4955199;29;20446;-73
2022/07/21 03:38:06;;;;;;;0.70;0.20;;;21.60;99.90;;;;;;4955552;29;20573;-73
2022/07/21 03:40:36;;;;;;;1.07;0.60;;;21.60;99.90;;;;;;4955487;29;20484;-72
2022/07/21 03:43:06;;;;;;;0.97;0.63;;;21.60;99.90;;;;;;4955547;29;20482;-72
2022/07/21 03:45:35;;;;;;;1.50;0.60;;;21.40;99.90;;;;;;4955439;28;20466;-72
2022/07/21 03:48:06;;;;;;;0.90;0.50;;;21.30;99.90;;;;;;4954302;28;20474;-72
2022/07/21 03:50:34;;;;;;;0.93;0.60;;;21.20;99.90;;;;;;4955223;29;20466;-72
2022/07/21 03:53:04;;;;;;;1.10;0.30;;;21.20;99.90;;;;;;4954820;29;20967;-72
2022/07/21 03:55:32;;;;;;;0.70;0.10;;;21.30;99.90;;;;;;4954995;29;20453;-71
2022/07/21 03:58:02;;;;;;;1.37;0.80;;;21.40;99.90;;;;;;4954536;28;21140;-73
2022/07/21 04:00:33;;;;;;;1.47;1.03;;;21.40;99.90;;;;;;4954653;29;20450;-72
2022/07/21 04:03:01;;;;;;;1.87;1.03;;;21.40;99.90;;;;;;4954684;29;20451;-72
2022/07/21 04:05:30;;;;;;;0.83;0.47;;;21.40;99.90;;;;;;4954359;29;21041;-72
2022/07/21 04:07:58;;;;;;;2.00;1.80;;;21.40;99.90;;;;;;4954741;29;20915;-73
2022/07/21 04:10:30;;;;;;;1.00;0.70;;;21.50;99.90;;;;;;4954574;29;20541;-73
2022/07/21 04:13:00;;;;;;;1.30;0.47;;;21.50;99.90;;;;;;4962056;28;20917;-71
2022/07/21 04:15:29;;;;;;;0.73;0.20;;;21.40;99.90;;;;;;4974099;28;20469;-73
2022/07/21 04:17:57;;;;;;;1.77;0.50;;;21.50;99.90;;;;;;4973398;28;20518;-72
2022/07/21 04:20:25;;;;;;;1.20;1.10;;;21.50;99.90;;;;;;4972699;28;20507;-72
2022/07/21 04:22:54;;;;;;;2.30;1.57;;;21.50;99.90;;;;;;4973176;28;20442;-73
2022/07/21 04:25:23;;;;;;;0.70;0.23;;;21.50;99.90;;;;;;4973504;28;20446;-72
2022/07/21 04:27:52;;;;;;;0.70;0.30;;;21.40;99.90;;;;;;4969107;28;20467;-73
2022/07/21 04:30:23;;;;;;;1.27;0.57;;;21.60;99.90;;;;;;4955085;29;20538;-70
2022/07/21 04:32:51;;;;;;;0.70;0.20;;;21.60;99.90;;;;;;4954207;29;20910;-70
2022/07/21 04:35:20;;;;;;;2.80;1.47;;;21.70;99.90;;;;;;4954495;28;20985;-70
2022/07/21 04:37:48;;;;;;;0.70;0.20;;;21.80;99.90;;;;;;4953471;29;20811;-70
2022/07/21 04:40:17;;;;;;;0.80;0.67;;;21.80;99.90;;;;;;4954088;29;20457;-71
2022/07/21 04:42:46;;;;;;;0.70;0.17;;;21.80;99.90;;;;;;4953892;29;20538;-71
2022/07/21 04:45:17;;;;;;;2.20;1.90;;;21.90;99.90;;;;;;4953879;29;20474;-71
2022/07/21 04:47:47;;;;;;;0.70;0.30;;;21.90;99.90;;;;;;4953826;29;20561;-71
2022/07/21 04:50:16;;;;;;;2.97;2.67;;;21.90;99.90;;;;;;4953644;28;20528;-71
2022/07/21 04:52:44;;;;;;;1.37;1.00;;;21.80;99.90;;;;;;4953782;29;20451;-70
2022/07/21 04:55:13;;;;;;;0.80;0.50;;;21.80;99.90;;;;;;4953166;29;20475;-71
2022/07/21 04:57:43;;;;;;;0.90;0.30;;;21.80;99.90;;;;;;4953134;29;20482;-71
2022/07/21 05:00:14;;;;;;;0.70;0.17;;;21.90;99.90;;;;;;4953442;29;20487;-71
2022/07/21 05:02:43;;;;;;;1.10;1.00;;;21.90;99.90;;;;;;4954901;28;20449;-71
2022/07/21 05:05:12;;;;;;;1.77;0.93;;;21.60;99.90;;;;;;4972299;28;20457;-71
2022/07/21 05:07:40;;;;;;;4.50;1.83;;;21.50;99.90;;;;;;4972805;28;20904;-70
2022/07/21 05:10:10;;;;;;;0.80;0.60;;;21.50;99.90;;;;;;4973399;28;20900;-71
2022/07/21 05:12:38;;;;;;;0.70;0.20;;;21.50;99.90;;;;;;4951087;28;20470;-72
2022/07/21 05:15:09;;;;;;;0.70;0.20;;;21.50;99.90;;;;;;4962201;28;20463;-71
2022/07/21 05:17:37;;;;;;;0.63;0.10;;;21.60;99.90;;;;;;4949811;28;20467;-70
2022/07/21 05:20:07;;;;;;;1.10;0.67;;;21.80;99.90;;;;;;4953628;28;20479;-70
2022/07/21 05:22:35;;;;;;;0.70;0.20;;;21.80;99.90;;;;;;4953851;29;20442;-70
2022/07/21 05:25:05;;;;;;;0.73;0.37;;;21.90;99.90;;;;;;4954999;28;20470;-72
2022/07/21 05:27:33;;;;;;;0.70;0.20;;;21.90;99.90;;;;;;4959201;28;21136;-72
2022/07/21 05:30:01;;;;;;;0.83;0.77;;;21.90;99.90;;;;;;4959892;28;20813;-72
2022/07/21 05:32:28;;;;;;;0.70;0.10;;;22.00;99.90;;;;;;4964502;28;20455;-74
2022/07/21 05:34:56;;;;;;;0.70;0.10;;;22.10;99.90;;;;;;4963789;28;20953;-72
2022/07/21 05:37:27;;;;;;;0.80;0.40;;;22.30;99.90;;;;;;4963645;28;20466;-73
2022/07/21 05:39:55;;;;;;;2.97;1.93;;;22.30;99.90;;;;;;4965585;28;20478;-71
2022/07/21 05:42:23;;;;;;;0.80;0.40;;;22.00;99.90;;;;;;4956160;28;20904;-71
2022/07/21 05:44:50;;;;;;;0.73;0.17;;;22.00;99.90;;;;;;4953761;28;20463;-71
2022/07/21 05:47:18;;;;;;;2.57;2.37;;;22.00;99.90;;;;;;4957965;28;20478;-73
2022/07/21 05:49:46;;;;;;;1.60;1.20;;;21.90;99.90;;;;;;4961669;28;20445;-71
2022/07/21 05:52:14;;;;;;;1.20;0.83;;;21.70;99.90;;;;;;4972300;28;20476;-70
2022/07/21 05:54:43;;;;;;;2.60;2.00;;;21.60;99.90;;;;;;4964895;28;20474;-70
2022/07/21 05:57:11;;;;;;;1.00;0.63;;;21.60;99.90;;;;;;4949811;29;20462;-71
2022/07/21 05:59:39;;;;;;;0.70;0.20;;;21.60;99.90;;;;;;4953020;29;21005;-70
2022/07/21 06:02:07;;;;;;;1.50;1.30;;;21.50;99.90;;;;;;4953002;29;20447;-69
2022/07/21 06:04:35;;;;;;;5.30;2.93;;;21.50;99.90;;;;;;4948841;29;20463;-68
2022/07/21 06:07:03;;;;;;;0.83;0.70;;;21.50;99.90;;;;;;4952901;29;20471;-70
2022/07/21 06:09:31;;;;;;;1.00;0.67;;;21.40;99.90;;;;;;4952496;29;20449;-70
2022/07/21 06:12:01;;;;;;;0.90;0.40;;;21.40;99.90;;;;;;4960842;28;20462;-73
2022/07/21 06:14:29;;;;;;;2.10;1.70;;;21.40;99.90;;;;;;4955761;28;20444;-72
2022/07/21 06:16:57;;;;;;;0.90;0.63;;;21.40;99.90;;;;;;4965947;28;20996;-73
2022/07/21 06:19:25;;;;;;;1.57;0.60;;;21.50;99.90;;;;;;4970847;28;20573;-70
2022/07/21 06:21:59;;;;;;;1.20;1.00;;;;;;;;;;4963409;28;20450;-71
2022/07/21 06:24:28;;;;;;;1.17;0.93;;;21.80;99.90;;;;;;4953972;29;20487;-68
2022/07/21 06:26:56;;;;;;;1.30;0.30;;;22.00;99.90;;;;;;4957910;28;20479;-70
2022/07/21 06:29:33;;;;;;;2.93;2.23;;;22.00;99.90;;;;;;4965437;28;20453;-69
2022/07/21 06:32:01;;;;;;;0.80;0.30;;;21.30;99.90;;;;;;4972966;28;20446;-70
2022/07/21 06:34:29;;;;;;;1.00;0.43;;;22.00;99.90;;;;;;4972583;28;20450;-70
2022/07/21 06:36:57;;;;;;;1.63;0.57;;;22.10;99.90;;;;;;4954656;28;20467;-71
2022/07/21 06:39:25;;;;;;;0.70;0.10;;;22.10;99.90;;;;;;4952544;28;20487;-72
2022/07/21 06:41:53;;;;;;;0.90;0.63;;;22.20;99.90;;;;;;4952420;29;20808;-72
2022/07/21 06:44:21;;;;;;;2.50;0.60;;;22.30;99.90;;;;;;4959649;28;20495;-69
2022/07/21 06:46:50;;;;;;;1.83;1.73;;;22.20;99.90;;;;;;4954644;28;20478;-70
2022/07/21 06:49:18;;;;;;;0.90;0.50;;;22.90;99.90;;;;;;4952512;29;20442;-71
2022/07/21 06:51:45;;;;;;;1.03;0.87;;;20.70;99.90;;;;;;4952750;28;20553;-73
2022/07/21 06:54:14;;;;;;;2.13;1.93;;;;;;;;;;4955788;29;20942;-71
2022/07/21 06:56:42;;;;;;;1.23;0.30;;;21.90;99.90;;;;;;4955871;29;20475;-70
2022/07/21 06:59:09;;;;;;;2.53;2.20;;;21.90;99.90;;;;;;4956229;29;20462;-68
2022/07/21 07:01:38;;;;;;;0.70;0.30;;;22.00;99.90;;;;;;4950770;28;20977;-70
2022/07/21 07:04:08;;;;;;;3.90;0.93;;;21.90;99.90;;;;;;4955911;29;20453;-70
2022/07/21 07:06:36;;;;;;;2.30;1.53;;;21.90;99.90;;;;;;4951358;29;20566;-72
2022/07/21 07:09:04;;;;;;;1.43;0.63;;;21.90;99.90;;;;;;4957054;28;20458;-73
2022/07/21 07:11:34;;;;;;;3.47;2.00;;;21.90;99.90;;;;;;4956700;29;20439;-73
2022/07/21 07:14:02;;;;;;;0.70;0.40;;;21.90;99.90;;;;;;4948317;28;20455;-73
2022/07/21 07:16:44;;;;;;;3.33;2.23;;;21.80;99.90;;;;;;4966058;28;20524;-75
2022/07/21 07:19:14;;;;;;;1.27;0.50;;;21.80;99.90;;;;;;4950968;28;20918;-72
2022/07/21 07:21:42;;;;;;;0.80;0.50;;;21.90;99.90;;;;;;4954315;29;20458;-72
2022/07/21 07:24:10;;;;;;;0.70;0.30;;;21.90;99.90;;;;;;4953428;29;20623;-74
2022/07/21 07:26:38;;;;;;;1.63;1.43;;;22.00;99.90;;;;;;4953718;29;20569;-72
2022/07/21 07:29:06;;;;;;;1.17;0.53;;;22.10;99.90;;;;;;4953673;29;20479;-73
2022/07/21 07:31:34;;;;;;;0.83;0.40;;;22.20;99.90;;;;;;4958376;28;20467;-73
2022/07/21 07:34:04;;;;;;;0.70;0.13;;;22.40;99.90;;;;;;4954646;29;20451;-73
2022/07/21 07:36:34;;;;;;;1.00;0.83;;;22.40;99.90;;;;;;4952441;28;20489;-69
2022/07/21 07:39:11;;;;;;;0.70;0.40;;;22.50;99.90;;;;;;4954795;28;20450;-72
2022/07/21 07:41:39;;;;;;;1.00;0.60;;;22.60;99.90;;;;;;4952308;29;20514;-72
2022/07/21 07:44:07;;;;;;;1.37;0.37;;;22.70;99.90;;;;;;4955085;28;20884;-71
2022/07/21 07:46:35;;;;;;;0.70;0.20;;;22.90;99.90;;;;;;4952620;29;20505;-71
2022/07/21 07:49:03;;;;;;;2.07;1.87;;;23.00;99.90;;;;;;4952768;28;20846;-72
2022/07/21 07:51:44;;;;;;;0.70;0.20;;;23.10;99.90;;;;;;4953016;29;20465;-72
2022/07/21 07:54:12;;;;;;;3.57;2.00;;;23.20;99.90;;;;;;4949734;29;20463;-72
2022/07/21 07:56:40;;;;;;;4.60;2.47;;;23.40;99.90;;;;;;4944308;28;20479;-75
2022/07/21 07:59:09;;;;;;;2.00;1.37;;;23.40;99.90;;;;;;4950375;29;20462;-74
2022/07/21 08:01:37;;;;;;;3.30;2.33;;;23.00;99.90;;;;;;4950488;29;20518;-74
2022/07/21 08:04:05;;;;;;;0.70;0.10;;;22.80;99.90;;;;;;4954211;28;20458;-76
2022/07/21 08:06:33;;;;;;;1.20;0.90;;;22.10;99.90;;;;;;4962769;28;20478;-75
2022/07/21 08:09:02;;;;;;;0.80;0.50;;;22.80;99.90;;;;;;4955542;28;20891;-77
2022/07/21 08:11:30;;;;;;;1.87;1.77;;;22.70;99.90;;;;;;4951347;28;20470;-75
2022/07/21 08:13:58;;;;;;;1.73;0.60;;;22.90;99.90;;;;;;4946394;28;20467;-74
2022/07/21 08:16:26;;;;;;;2.70;1.30;;;22.90;99.90;;;;;;4953298;29;20529;-74
2022/07/21 08:18:54;;;;;;;4.20;3.60;;;22.90;99.90;;;;;;4953504;29;20443;-75
2022/07/21 08:21:24;;;;;;;15.60;1.13;;;23.00;99.90;;;;;;4954088;29;20514;-75
2022/07/21 08:24:13;;;;;;;1.00;0.60;;;23.20;99.90;;;;;;4963053;28;20460;-75
2022/07/21 08:26:41;;;;;;;2.07;1.57;;;23.20;99.90;;;;;;4968768;28;20578;-75
2022/07/21 08:29:09;;;;;;;1.33;1.10;;;23.20;99.90;;;;;;4948540;29;20530;-75
2022/07/21 08:31:37;;;;;;;1.27;0.80;;;23.30;99.90;;;;;;4954331;29;20961;-75
2022/07/21 08:34:05;;;;;;;0.80;0.53;;;23.20;99.90;;;;;;4954545;29;20478;-75
2022/07/21 08:36:33;;;;;;;0.90;0.47;;;23.50;99.90;;;;;;4955083;29;20878;-76
2022/07/21 08:39:01;;;;;;;1.20;0.87;;;23.50;99.90;;;;;;4954557;29;20542;-75
2022/07/21 08:41:32;;;;;;;0.80;0.40;;;23.50;99.90;;;;;;4960518;28;20477;-76
2022/07/21 08:44:00;;;;;;;0.70;0.30;;;23.70;99.90;;;;;;4957788;28;20503;-75
2022/07/21 08:46:29;;;;;;;2.80;1.80;;;23.80;99.90;;;;;;4954696;29;20525;-76
2022/07/21 08:48:58;;;;;;;0.70;0.20;;;23.90;99.90;;;;;;4953834;29;20893;-76
2022/07/21 08:51:26;;;;;;;0.80;0.50;;;24.00;99.90;;;;;;4953834;29;20454;-76
2022/07/21 08:53:54;;;;;;;0.70;0.30;;;24.00;99.90;;;;;;4953319;29;20455;-78
2022/07/21 08:56:23;;;;;;;1.53;1.07;;;24.00;99.90;;;;;;4953101;29;20522;-75
2022/07/21 08:58:52;;;;;;;4.90;4.60;;;23.90;99.90;;;;;;4963675;28;20455;-75
2022/07/21 09:01:23;;;;;;;0.70;0.10;;;23.80;99.90;;;;;;4952847;29;20845;-75
2022/07/21 09:03:52;;;;;;;2.10;1.47;;;23.60;99.90;;;;;;4953437;29;20451;-76
2022/07/21 09:06:21;;;;;;;0.70;0.10;;;23.50;99.90;;;;;;4953479;29;20463;-75
2022/07/21 09:08:50;;;;;;;0.90;0.40;;;23.50;99.90;;;;;;4941400;29;20450;-74
2022/07/21 09:11:21;;;;;;;0.70;0.30;;;23.50;99.90;;;;;;4963217;29;20502;-76
2022/07/21 09:13:52;;;;;;;0.70;0.20;;;23.60;99.90;;;;;;4955825;28;20823;-77
2022/07/21 09:16:38;;;;;;;0.70;0.20;;;23.70;99.90;;;;;;4970719;28;20523;-75
2022/07/21 09:19:15;;;;;;;11.10;1.30;;;23.70;99.90;;;;;;4940599;29;20811;-76
2022/07/21 09:21:43;;;;;;;1.00;0.60;;;23.60;99.90;;;;;;4953390;29;20486;-69
2022/07/21 09:24:21;;;;;;;0.70;0.10;;;23.40;99.90;;;;;;4962276;28;20443;-69
2022/07/21 09:27:08;;;;;;;0.70;0.10;;;23.60;99.90;;;;;;4952733;28;20474;-68
2022/07/21 09:29:45;;;;;;;0.70;0.20;;;23.70;99.90;;;;;;4952642;29;20439;-71
2022/07/21 09:32:23;;;;;;;1.67;1.57;;;23.90;99.90;;;;;;4967855;28;20446;-69
2022/07/21 09:34:53;;;;;;;2.50;2.33;;;25.70;99.90;;;;;;4972355;28;20446;-68
2022/07/21 09:37:23;;;;;;;0.73;0.47;;;24.40;99.90;;;;;;4964209;28;20463;-68
2022/07/21 09:39:53;;;;;;;0.80;0.40;;;24.40;99.90;;;;;;4946402;28;20481;-68
2022/07/21 09:42:25;;;;;;;0.70;0.23;;;24.70;99.90;;;;;;4951884;29;21189;-68
2022/07/21 09:44:56;;;;;;;0.70;0.20;;;24.70;99.90;;;;;;4956744;28;20467;-67
2022/07/21 09:47:28;;;;;;;0.70;0.13;;;24.80;99.90;;;;;;4967325;28;20565;-68
2022/07/21 09:49:58;;;;;;;2.10;1.63;;;24.80;99.90;;;;;;4964238;28;20454;-67
2022/07/21 09:52:48;;;;;;;1.10;0.50;;;24.90;99.90;;;;;;4932042;29;20519;-71
2022/07/21 09:55:17;;;;;;;1.23;0.83;;;24.90;99.90;;;;;;4949297;28;20521;-68
2022/07/21 09:57:46;;;;;;;1.10;0.67;;;;;;;;;;4954747;28;20462;-70
2022/07/21 10:00:16;;;;;;;0.70;0.20;;;25.20;99.90;;;;;;4954814;28;20795;-68
2022/07/21 10:02:49;;;;;;;0.70;0.20;;;25.10;99.90;;;;;;4959044;28;20467;-70
2022/07/21 10:05:19;;;;;;;1.10;1.00;;;25.10;99.90;;;;;;4962828;28;20463;-71
2022/07/21 10:07:49;;;;;;;0.70;0.20;;;25.00;99.90;;;;;;4963588;28;20461;-71
2022/07/21 10:10:18;;;;;;;0.80;0.40;;;25.10;99.90;;;;;;4950137;28;20475;-71
2022/07/21 10:12:49;;;;;;;0.70;0.20;;;25.20;99.90;;;;;;4955907;28;20454;-73
2022/07/21 10:15:18;;;;;;;0.70;0.20;;;25.30;99.90;;;;;;4954602;28;20446;-73
2022/07/21 10:17:53;;;;;;;1.70;0.70;;;25.60;99.90;;;;;;4957029;28;20502;-73
2022/07/21 10:20:27;;;;;;;1.73;1.13;;;25.70;99.90;;;;;;4954135;28;20465;-72
2022/07/21 10:23:16;;;;;;;0.70;0.20;;;25.60;99.90;;;;;;4957442;28;20815;-72
2022/07/21 10:25:48;;;;;;;1.73;1.63;;;27.00;99.90;;;;;;4952569;28;20459;-72
2022/07/21 10:28:20;;;;;;;1.53;0.53;;;25.80;99.90;;;;;;4950960;29;20444;-71
2022/07/21 10:30:50;;;;;;;1.10;0.63;;;26.10;99.90;;;;;;4955624;29;21139;-71
2022/07/21 10:33:22;;;;;;;1.00;0.40;;;26.10;99.90;;;;;;4954577;29;20455;-71
2022/07/21 10:35:51;;;;;;;0.93;0.83;;;26.10;99.90;;;;;;4952103;29;20463;-72
2022/07/21 10:38:28;;;;;;;0.70;0.20;;;26.10;99.90;;;;;;4955231;29;20451;-73
2022/07/21 10:40:56;;;;;;;0.70;0.20;;;26.10;99.90;;;;;;4955073;28;20450;-72
2022/07/21 10:43:43;;;;;;;1.30;0.90;;;26.30;99.90;;;;;;4946447;29;20542;-72
2022/07/21 10:46:36;;;;;;;0.80;0.50;;;26.30;99.90;;;;;;4952294;29;20463;-72
2022/07/21 10:49:09;;;;;;;0.90;0.53;;;26.40;99.90;;;;;;4946858;28;20463;-73
2022/07/21 10:51:38;;;;;;;0.70;0.30;;;26.50;99.90;;;;;;4953620;29;20894;-73
2022/07/21 10:54:26;;;;;;;0.90;0.57;;;26.60;99.90;;;;;;4955497;29;20446;-73
2022/07/21 10:57:26;;;;;;;1.67;1.10;;;26.80;99.90;;;;;;4967208;28;20480;-72
2022/07/21 11:00:24;;;;;;;0.80;0.47;;;26.70;99.90;;;;;;4953656;29;20450;-72
2022/07/21 11:02:54;;;;;;;0.80;0.20;;;26.80;99.90;;;;;;4940809;29;20482;-71
2022/07/21 11:05:25;;;;;;;1.03;0.40;;;26.80;99.90;;;;;;4955647;29;20984;-70
2022/07/21 11:08:16;;;;;;;1.40;0.60;;;26.60;99.90;;;;;;4957415;29;20490;-71
2022/07/21 11:10:47;;;;;;;1.13;0.43;;;26.50;99.90;;;;;;4958522;28;20745;-72
2022/07/21 11:13:16;;;;;;;1.00;0.70;;;26.60;99.90;;;;;;4957650;28;20454;-72
2022/07/21 11:15:50;;;;;;;1.77;1.33;;;26.40;99.90;;;;;;4957378;28;20451;-72
2022/07/21 11:18:18;;;;;;;0.70;0.20;;;26.20;99.90;;;;;;4955179;29;20477;-72
2022/07/21 11:23:43;;;;;;;0.70;0.20;;;26.30;99.90;;;;;;5088600;28;20518;-73
2022/07/21 11:26:12;;;;;;;0.70;0.10;;;26.40;99.90;;;;;;5088261;28;20453;-73
2022/07/21 11:28:41;;;;;;;1.87;0.83;;;26.40;99.90;;;;;;5080680;28;21018;-73
2022/07/21 11:31:15;;;;;;;0.70;0.27;;;26.40;99.90;;;;;;5068165;28;20550;-72
2022/07/21 11:33:45;;;;;;;0.97;0.40;;;26.30;99.90;;;;;;5068955;28;20449;-74
2022/07/21 11:36:25;;;;;;;0.70;0.10;;;26.30;99.90;;;;;;5078947;28;20538;-73
2022/07/21 11:39:06;;;;;;;0.80;0.40;;;26.20;99.90;;;;;;5087133;28;20456;-73
2022/07/21 11:41:35;;;;;;;0.97;0.50;;;26.30;99.90;;;;;;5085950;28;20494;-73
2022/07/21 11:44:05;;;;;;;0.70;0.10;;;26.20;99.90;;;;;;5080022;28;20959;-72
2022/07/21 11:46:47;;;;;;;0.70;0.20;;;26.30;99.90;;;;;;5081280;28;21014;-72
2022/07/21 11:49:15;;;;;;;0.70;0.20;;;26.30;99.90;;;;;;5068876;28;20448;-72
2022/07/21 11:51:51;;;;;;;0.80;0.47;;;26.30;99.90;;;;;;5072186;28;20453;-73
2022/07/21 11:54:26;;;;;;;0.70;0.20;;;26.20;99.90;;;;;;5086113;28;20507;-74
2022/07/21 11:56:55;;;;;;;0.90;0.60;;;26.20;99.90;;;;;;5088247;28;20462;-74
2022/07/21 11:59:25;;;;;;;0.70;0.17;;;26.20;99.90;;;;;;5088331;28;20437;-73
2022/07/21 12:02:02;;;;;;;0.80;0.30;;;26.30;99.90;;;;;;5088679;28;20845;-71
2022/07/21 12:04:33;;;;;;;3.63;1.50;;;26.20;99.90;;;;;;5094085;28;20457;-72
2022/07/21 12:07:02;;;;;;;0.70;0.30;;;26.00;99.90;;;;;;5092086;28;20456;-73
2022/07/21 12:09:32;;;;;;;1.73;0.90;;;25.80;99.90;;;;;;5088478;28;20429;-72
2022/07/21 12:12:01;;;;;;;0.70;0.10;;;25.60;99.90;;;;;;5088904;28;20437;-73
2022/07/21 12:14:44;;;;;;;0.70;0.17;;;25.60;99.90;;;;;;5088370;28;20455;-73
2022/07/21 12:17:12;;;;;;;3.00;1.80;;;25.60;99.90;;;;;;5078309;28;20467;-73
2022/07/21 12:19:41;;;;;;;0.80;0.30;;;25.70;99.90;;;;;;5076068;28;20516;-71
2022/07/21 12:22:09;;;;;;;0.80;0.47;;;25.70;99.90;;;;;;5078885;28;20480;-72
2022/07/21 12:24:58;;;;;;;0.70;0.10;;;25.80;99.90;;;;;;5086755;28;20544;-74
2022/07/21 12:27:27;;;;;;;0.70;0.23;;;26.30;99.90;;;;;;5075067;28;20468;-70
2022/07/21 12:29:55;;;;;;;0.83;0.33;;;26.30;99.90;;;;;;5077981;28;20556;-74
2022/07/21 12:32:42;;;;;;;1.10;0.83;;;26.50;99.90;;;;;;5084799;28;20433;-71
2022/07/21 12:35:22;;;;;;;0.70;0.20;;;26.60;99.90;;;;;;5062273;28;20453;-70
2022/07/21 12:38:01;;;;;;;4.43;1.03;;;26.80;99.90;;;;;;5063292;28;20796;-71
2022/07/21 12:40:33;;;;;;;1.67;0.80;;;26.90;99.90;;;;;;5069662;28;20442;-71
2022/07/21 12:43:20;;;;;;;0.70;0.20;;;27.10;99.90;;;;;;5068927;28;20504;-72
2022/07/21 12:45:54;;;;;;;0.70;0.20;;;27.20;99.90;;;;;;5066932;28;20447;-73
2022/07/21 12:48:25;;;;;;;1.10;0.57;;;27.20;99.90;;;;;;5067817;28;20643;-72
2022/07/21 12:51:06;;;;;;;1.17;0.97;;;27.20;99.90;;;;;;5072588;28;20442;-71
2022/07/21 12:53:37;;;;;;;0.70;0.20;;;27.50;99.90;;;;;;5064229;28;20484;-73
2022/07/21 12:56:07;;;;;;;1.10;0.30;;;27.80;99.90;;;;;;5068313;28;20489;-71
2022/07/21 12:58:35;;;;;;;0.90;0.57;;;27.80;99.90;;;;;;5069604;28;20446;-71
2022/07/21 13:01:04;;;;;;;1.03;0.93;;;27.90;99.90;;;;;;5065537;28;20460;-72
2022/07/21 13:03:34;;;;;;;10.60;3.17;;;28.00;99.90;;;;;;5069952;28;20516;-72
2022/07/21 13:06:04;;;;;;;1.20;0.73;;;28.10;99.90;;;;;;5060944;28;20579;-72
2022/07/21 13:08:37;;;;;;;0.77;0.27;;;28.10;99.90;;;;;;5064949;28;20939;-72
2022/07/21 13:11:06;;;;;;;0.70;0.20;;;28.10;99.90;;;;;;5066464;28;20801;-73